createdAt,value
2018-04-29T00:01:13.570Z,5.47
2018-04-29T00:03:41.738Z,6.93
2018-04-29T00:06:09.869Z,7.53
2018-04-29T00:08:38.793Z,5.90
2018-04-29T00:11:06.971Z,6.60
2018-04-29T00:13:35.161Z,5.50
2018-04-29T00:16:03.321Z,6.67
2018-04-29T00:18:31.444Z,6.47
2018-04-29T00:21:00.348Z,5.83
2018-04-29T00:23:28.464Z,6.13
2018-04-29T00:25:56.594Z,7.50
2018-04-29T00:28:24.799Z,7.10
2018-04-29T00:30:52.962Z,7.50
2018-04-29T00:33:21.096Z,6.03
2018-04-29T00:35:49.251Z,7.40
2018-04-29T00:38:17.446Z,8.20
2018-04-29T00:40:46.378Z,7.40
2018-04-29T00:43:14.525Z,8.23
2018-04-29T00:45:42.665Z,7.33
2018-04-29T00:48:10.821Z,6.37
2018-04-29T00:50:38.979Z,6.27
2018-04-29T00:53:07.132Z,7.00
2018-04-29T00:55:35.268Z,6.73
2018-04-29T00:58:04.207Z,7.10
2018-04-29T01:00:32.477Z,7.70
2018-04-29T01:03:00.638Z,7.70
2018-04-29T01:05:28.821Z,7.97
2018-04-29T01:07:56.965Z,7.57
2018-04-29T01:10:25.680Z,8.50
2018-04-29T01:12:53.846Z,7.30
2018-04-29T01:15:22.017Z,8.17
2018-04-29T01:17:50.137Z,7.30
2018-04-29T01:20:18.501Z,7.07
2018-04-29T01:22:46.675Z,7.67
2018-04-29T01:25:14.835Z,8.40
2018-04-29T01:27:42.976Z,7.67
2018-04-29T01:30:11.097Z,8.33
2018-04-29T01:32:39.304Z,7.37
2018-04-29T01:35:07.468Z,7.87
2018-04-29T01:37:35.618Z,7.40
2018-04-29T01:40:03.829Z,7.60
2018-04-29T01:42:31.984Z,8.60
2018-04-29T01:45:00.904Z,7.90
2018-04-29T01:47:29.021Z,8.53
2018-04-29T01:49:57.174Z,7.40
2018-04-29T01:52:25.350Z,7.63
2018-04-29T01:54:53.489Z,7.87
2018-04-29T01:57:21.643Z,7.90
2018-04-29T01:59:49.805Z,7.37
2018-04-29T02:02:18.713Z,7.60
2018-04-29T02:04:46.829Z,7.63
2018-04-29T02:07:14.973Z,8.30
2018-04-29T02:09:43.130Z,8.50
2018-04-29T02:12:11.261Z,7.97
2018-04-29T02:14:39.420Z,7.60
2018-04-29T02:17:07.545Z,8.07
2018-04-29T02:19:35.924Z,8.47
2018-04-29T02:22:04.064Z,8.60
2018-04-29T02:24:32.190Z,7.97
2018-04-29T02:27:00.345Z,8.17
2018-04-29T02:29:28.491Z,8.90
2018-04-29T02:31:57.409Z,8.63
2018-04-29T02:34:25.567Z,8.50
2018-04-29T02:36:53.733Z,8.23
2018-04-29T02:39:22.686Z,8.40
2018-04-29T02:41:50.846Z,8.40
2018-04-29T02:44:19.001Z,9.00
2018-04-29T02:46:47.146Z,8.97
2018-04-29T02:49:15.268Z,9.60
2018-04-29T02:51:43.424Z,9.00
2018-04-29T02:54:11.710Z,10.20
2018-04-29T02:56:39.866Z,9.03
2018-04-29T02:59:07.995Z,10.20
2018-04-29T03:01:36.915Z,9.80
2018-04-29T03:04:05.282Z,9.10
2018-04-29T03:06:33.460Z,9.37
2018-04-29T03:09:01.588Z,8.30
2018-04-29T03:11:29.701Z,8.60
2018-04-29T03:13:57.841Z,10.30
2018-04-29T03:16:25.965Z,11.03
2018-04-29T03:18:54.120Z,9.47
2018-04-29T03:21:22.247Z,10.07
2018-04-29T03:23:50.402Z,10.47
2018-04-29T03:26:18.590Z,9.20
2018-04-29T03:28:46.833Z,10.77
2018-04-29T03:31:14.985Z,9.63
2018-04-29T03:33:43.121Z,9.30
2018-04-29T03:36:11.332Z,9.70
2018-04-29T03:38:39.489Z,10.30
2018-04-29T03:41:08.416Z,9.90
2018-04-29T03:43:36.605Z,9.97
2018-04-29T03:46:04.742Z,10.70
2018-04-29T03:48:32.876Z,10.27
2018-04-29T03:51:01.017Z,11.17
2018-04-29T03:53:29.140Z,10.53
2018-04-29T03:55:58.250Z,11.50
2018-04-29T03:58:44.271Z,10.93
2018-04-29T04:01:30.392Z,11.17
2018-04-29T04:03:59.429Z,11.20
2018-04-29T04:06:27.622Z,11.27
2018-04-29T04:08:55.773Z,10.13
2018-04-29T04:11:23.928Z,10.53
2018-04-29T04:13:52.816Z,10.37
2018-04-29T04:16:21.728Z,11.03
2018-04-29T04:18:49.862Z,10.70
2018-04-29T04:21:18.831Z,11.00
2018-04-29T04:23:47.087Z,10.43
2018-04-29T04:26:15.957Z,11.90
2018-04-29T04:28:44.090Z,10.20
2018-04-29T04:31:13.029Z,10.47
2018-04-29T04:33:41.183Z,9.83
2018-04-29T04:36:09.378Z,10.30
2018-04-29T04:38:37.552Z,11.40
2018-04-29T04:41:05.693Z,12.20
2018-04-29T04:43:34.605Z,10.20
2018-04-29T04:46:02.732Z,12.67
2018-04-29T04:48:30.904Z,12.60
2018-04-29T04:50:59.095Z,11.40
2018-04-29T04:53:27.996Z,9.90
2018-04-29T04:55:56.889Z,9.93
2018-04-29T04:58:25.078Z,10.20
2018-04-29T05:00:53.284Z,9.67
2018-04-29T05:03:21.447Z,9.83
2018-04-29T05:05:49.618Z,10.57
2018-04-29T05:08:17.772Z,11.03
2018-04-29T05:10:45.936Z,10.70
2018-04-29T05:13:14.110Z,12.50
2018-04-29T05:15:42.842Z,11.30
2018-04-29T05:18:10.996Z,10.57
2018-04-29T05:20:39.155Z,10.93
2018-04-29T05:23:07.309Z,10.47
2018-04-29T05:25:35.501Z,11.37
2018-04-29T05:28:03.658Z,10.03
2018-04-29T05:30:31.813Z,11.83
2018-04-29T05:33:00.762Z,9.93
2018-04-29T05:35:29.026Z,10.50
2018-04-29T05:37:57.092Z,10.07
2018-04-29T05:40:25.269Z,9.00
2018-04-29T05:42:53.422Z,9.73
2018-04-29T05:45:21.546Z,9.77
2018-04-29T05:47:49.789Z,9.97
2018-04-29T05:50:17.943Z,10.57
2018-04-29T05:52:46.068Z,8.57
2018-04-29T05:55:14.204Z,9.97
2018-04-29T05:57:42.354Z,10.10
2018-04-29T06:00:10.520Z,10.10
2018-04-29T06:02:38.687Z,8.83
2018-04-29T06:05:06.865Z,8.53
2018-04-29T06:07:35.016Z,7.63
2018-04-29T06:10:03.938Z,6.70
2018-04-29T06:12:32.958Z,6.93
2018-04-29T06:15:01.093Z,6.90
2018-04-29T06:17:29.242Z,6.83
2018-04-29T06:19:58.190Z,6.27
2018-04-29T06:22:26.366Z,6.80
2018-04-29T06:24:54.520Z,7.67
2018-04-29T06:27:22.671Z,6.53
2018-04-29T06:29:50.797Z,6.67
2018-04-29T06:32:18.917Z,6.80
2018-04-29T06:34:47.081Z,6.70
2018-04-29T06:37:25.402Z,6.17
2018-04-29T06:39:53.521Z,6.67
2018-04-29T06:42:21.658Z,5.37
2018-04-29T06:44:49.866Z,5.17
2018-04-29T06:47:18.822Z,5.50
2018-04-29T06:49:47.165Z,5.33
2018-04-29T06:52:15.371Z,6.10
2018-04-29T06:54:43.576Z,5.03
2018-04-29T06:57:11.740Z,5.90
2018-04-29T06:59:39.904Z,5.33
2018-04-29T07:02:08.072Z,6.53
2018-04-29T07:04:36.294Z,5.60
2018-04-29T07:07:04.524Z,5.73
2018-04-29T07:09:32.706Z,5.43
2018-04-29T07:12:01.397Z,5.45
2018-04-29T07:14:29.553Z,5.90
2018-04-29T07:16:57.766Z,5.60
2018-04-29T07:19:25.932Z,5.90
2018-04-29T07:21:54.075Z,4.80
2018-04-29T07:24:22.271Z,5.00
2018-04-29T07:26:50.501Z,5.30
2018-04-29T07:29:18.666Z,5.27
2018-04-29T07:31:47.083Z,5.10
2018-04-29T07:34:15.223Z,5.33
2018-04-29T07:36:43.405Z,5.70
2018-04-29T07:39:11.547Z,5.93
2018-04-29T07:41:40.442Z,5.90
2018-04-29T07:44:09.941Z,5.00
2018-04-29T07:46:38.852Z,5.00
2018-04-29T07:49:07.016Z,5.40
2018-04-29T07:51:35.240Z,5.00
2018-04-29T07:54:03.411Z,5.13
2018-04-29T07:56:31.586Z,4.40
2018-04-29T07:58:59.740Z,4.70
2018-04-29T08:01:27.873Z,4.57
2018-04-29T08:03:56.878Z,4.53
2018-04-29T08:06:25.074Z,4.67
2018-04-29T08:08:53.360Z,4.00
2018-04-29T08:11:21.713Z,5.20
2018-04-29T08:13:50.054Z,4.13
2018-04-29T08:16:19.521Z,4.07
2018-04-29T08:18:47.704Z,4.03
2018-04-29T08:21:15.875Z,3.93
2018-04-29T08:23:44.068Z,4.30
2018-04-29T08:26:12.279Z,4.10
2018-04-29T08:28:40.558Z,4.60
2018-04-29T08:31:08.752Z,3.43
2018-04-29T08:33:36.936Z,4.30
2018-04-29T08:36:05.133Z,3.47
2018-04-29T08:38:33.414Z,4.77
2018-04-29T08:41:01.787Z,3.17
2018-04-29T08:43:29.914Z,4.23
2018-04-29T08:45:58.042Z,3.40
2018-04-29T08:48:26.342Z,4.50
2018-04-29T08:50:54.506Z,3.30
2018-04-29T08:53:23.441Z,4.10
2018-04-29T08:55:51.605Z,3.50
2018-04-29T08:58:19.786Z,3.63
2018-04-29T09:00:47.916Z,3.70
2018-04-29T09:03:16.937Z,4.10
2018-04-29T09:05:45.065Z,3.27
2018-04-29T09:08:14.426Z,3.77
2018-04-29T09:10:42.618Z,4.00
2018-04-29T09:13:10.753Z,3.63
2018-04-29T09:15:40.401Z,4.43
2018-04-29T09:18:09.125Z,3.40
2018-04-29T09:20:38.050Z,2.93
2018-04-29T09:23:06.345Z,3.50
2018-04-29T09:25:34.501Z,3.00
2018-04-29T09:28:02.645Z,3.50
2018-04-29T09:30:30.827Z,3.87
2018-04-29T09:32:58.993Z,3.40
2018-04-29T09:35:27.252Z,3.03
2018-04-29T09:37:56.151Z,3.23
2018-04-29T09:40:24.342Z,2.83
2018-04-29T09:42:52.547Z,3.27
2018-04-29T09:45:20.972Z,3.10
2018-04-29T09:47:49.151Z,3.00
2018-04-29T09:50:17.317Z,3.70
2018-04-29T09:52:45.686Z,2.93
2018-04-29T09:55:14.620Z,2.57
2018-04-29T09:57:42.765Z,3.10
2018-04-29T10:00:10.885Z,3.00
2018-04-29T10:02:44.610Z,3.20
2018-04-29T10:05:13.530Z,2.87
2018-04-29T10:07:41.673Z,3.23
2018-04-29T10:10:09.844Z,3.03
2018-04-29T10:12:38.015Z,3.10
2018-04-29T10:15:06.178Z,2.70
2018-04-29T10:17:34.352Z,3.40
2018-04-29T10:20:02.543Z,3.07
2018-04-29T10:22:31.438Z,3.00
2018-04-29T10:25:00.343Z,2.73
2018-04-29T10:27:28.501Z,2.50
2018-04-29T10:29:57.522Z,2.90
2018-04-29T10:32:25.704Z,2.90
2018-04-29T10:34:53.841Z,3.07
2018-04-29T10:37:22.751Z,3.30
2018-04-29T10:39:50.882Z,3.40
2018-04-29T10:42:19.033Z,3.10
2018-04-29T10:44:47.167Z,3.17
2018-04-29T10:47:15.340Z,2.70
2018-04-29T10:49:43.553Z,3.30
2018-04-29T10:52:11.711Z,3.47
2018-04-29T10:54:39.906Z,3.10
2018-04-29T10:57:08.084Z,2.60
2018-04-29T10:59:36.233Z,2.90
2018-04-29T11:02:04.421Z,3.20
2018-04-29T11:04:32.618Z,3.57
2018-04-29T11:07:00.775Z,3.33
2018-04-29T11:09:28.927Z,3.20
2018-04-29T11:11:57.225Z,3.27
2018-04-29T11:14:25.434Z,3.17
2018-04-29T11:16:53.600Z,3.27
2018-04-29T11:19:22.485Z,2.57
2018-04-29T11:21:51.435Z,3.37
2018-04-29T11:24:19.615Z,7.70
2018-04-29T11:26:47.752Z,20.07
2018-04-29T11:29:15.953Z,37.17
2018-04-29T11:31:44.117Z,36.20
2018-04-29T11:34:12.301Z,32.87
2018-04-29T11:36:40.600Z,3.20
2018-04-29T11:39:08.766Z,17.20
2018-04-29T11:41:36.924Z,2.97
2018-04-29T11:44:05.061Z,13.93
2018-04-29T11:46:33.204Z,12.03
2018-04-29T11:49:02.183Z,3.17
2018-04-29T11:51:30.354Z,8.83
2018-04-29T11:53:58.581Z,7.43
2018-04-29T11:56:26.761Z,8.70
2018-04-29T11:58:54.934Z,3.27
2018-04-29T12:01:23.140Z,2.40
2018-04-29T12:03:51.330Z,2.67
2018-04-29T12:06:20.522Z,3.30
2018-04-29T12:08:48.760Z,2.10
2018-04-29T12:11:16.940Z,3.40
2018-04-29T12:13:45.103Z,2.30
2018-04-29T12:16:13.278Z,2.73
2018-04-29T12:18:41.456Z,4.03
2018-04-29T12:21:09.668Z,2.57
2018-04-29T12:23:38.596Z,3.10
2018-04-29T12:26:06.741Z,2.50
2018-04-29T12:28:35.778Z,3.20
2018-04-29T12:31:03.963Z,2.03
2018-04-29T12:33:32.195Z,3.50
2018-04-29T12:36:00.367Z,2.13
2018-04-29T12:38:28.560Z,2.67
2018-04-29T12:40:57.494Z,2.37
2018-04-29T12:43:25.646Z,2.10
2018-04-29T12:45:53.826Z,2.40
2018-04-29T12:48:22.002Z,2.47
2018-04-29T12:50:50.170Z,2.30
2018-04-29T12:53:18.386Z,2.43
2018-04-29T12:55:47.306Z,2.10
2018-04-29T12:58:15.431Z,2.53
2018-04-29T13:00:44.345Z,2.20
2018-04-29T13:03:13.245Z,1.93
2018-04-29T13:05:41.497Z,2.23
2018-04-29T13:08:09.613Z,2.30
2018-04-29T13:10:37.747Z,3.13
2018-04-29T13:13:06.641Z,2.40
2018-04-29T13:15:34.783Z,1.83
2018-04-29T13:18:02.945Z,1.60
2018-04-29T13:20:31.121Z,2.00
2018-04-29T13:22:59.281Z,2.10
2018-04-29T13:25:27.445Z,1.70
2018-04-29T13:27:55.640Z,2.20
2018-04-29T13:30:24.696Z,1.90
2018-04-29T13:32:53.101Z,2.53
2018-04-29T13:35:21.304Z,1.87
2018-04-29T13:37:50.423Z,1.40
2018-04-29T13:40:18.540Z,2.05
2018-04-29T13:42:47.641Z,2.30
2018-04-29T13:45:15.807Z,2.25
2018-04-29T13:47:43.961Z,2.62
2018-04-29T13:50:12.102Z,2.10
2018-04-29T13:52:40.272Z,2.22
2018-04-29T13:55:08.444Z,2.08
2018-04-29T13:57:37.323Z,1.85
2018-04-29T14:00:06.258Z,2.10
2018-04-29T14:02:34.399Z,1.90
2018-04-29T14:05:02.577Z,2.08
2018-04-29T14:07:30.769Z,2.12
2018-04-29T14:09:58.903Z,2.17
2018-04-29T14:12:27.802Z,2.33
2018-04-29T14:14:56.743Z,2.10
2018-04-29T14:17:24.906Z,1.87
2018-04-29T14:19:53.118Z,2.55
2018-04-29T14:22:21.315Z,2.10
2018-04-29T14:24:50.256Z,2.20
2018-04-29T14:27:18.414Z,2.25
2018-04-29T14:29:46.559Z,2.00
2018-04-29T14:32:15.378Z,1.98
2018-04-29T14:34:43.707Z,1.60
2018-04-29T14:37:11.881Z,2.00
2018-04-29T14:39:40.818Z,2.10
2018-04-29T14:42:09.017Z,1.90
2018-04-29T14:44:37.200Z,2.00
2018-04-29T14:47:06.638Z,2.30
2018-04-29T14:49:34.889Z,1.93
2018-04-29T14:52:03.063Z,2.28
2018-04-29T14:54:31.979Z,1.92
2018-04-29T14:57:00.135Z,2.28
2018-04-29T14:59:29.037Z,2.22
2018-04-29T15:01:57.202Z,2.20
2018-04-29T15:04:25.358Z,2.08
2018-04-29T15:06:53.505Z,2.03
2018-04-29T15:09:21.637Z,2.10
2018-04-29T15:11:49.843Z,1.80
2018-04-29T15:14:17.997Z,2.03
2018-04-29T15:16:46.141Z,1.83
2018-04-29T15:19:14.292Z,2.00
2018-04-29T15:21:43.341Z,2.30
2018-04-29T15:24:11.535Z,1.80
2018-04-29T15:26:39.644Z,2.17
2018-04-29T15:29:08.550Z,2.40
2018-04-29T15:31:36.705Z,1.83
2018-04-29T15:34:06.039Z,2.00
2018-04-29T15:36:34.149Z,2.17
2018-04-29T15:39:02.283Z,1.73
2018-04-29T15:41:30.445Z,2.30
2018-04-29T15:43:59.050Z,2.43
2018-04-29T15:46:27.195Z,3.17
2018-04-29T15:48:55.358Z,4.00
2018-04-29T15:51:23.566Z,2.90
2018-04-29T15:53:51.718Z,2.40
2018-04-29T15:56:19.864Z,2.50
2018-04-29T15:58:48.756Z,2.23
2018-04-29T16:01:17.637Z,2.70
2018-04-29T16:03:46.558Z,2.27
2018-04-29T16:06:14.669Z,2.90
2018-04-29T16:08:42.793Z,3.20
2018-04-29T16:11:11.207Z,9.27
2018-04-29T16:13:39.370Z,9.43
2018-04-29T16:16:07.992Z,3.63
2018-04-29T16:18:36.237Z,4.80
2018-04-29T16:21:04.385Z,13.40
2018-04-29T16:23:32.508Z,5.00
2018-04-29T16:26:00.734Z,10.77
2018-04-29T16:28:28.890Z,7.20
2018-04-29T16:30:57.058Z,6.30
2018-04-29T16:33:25.994Z,4.17
2018-04-29T16:35:54.129Z,3.77
2018-04-29T16:38:22.330Z,7.70
2018-04-29T16:40:50.469Z,5.83
2018-04-29T16:43:19.349Z,4.30
2018-04-29T16:45:48.244Z,4.80
2018-04-29T16:48:17.214Z,2.70
2018-04-29T16:50:45.574Z,4.27
2018-04-29T16:53:13.821Z,3.23
2018-04-29T16:55:42.112Z,4.40
2018-04-29T16:58:10.245Z,4.30
2018-04-29T17:00:38.454Z,2.93
2018-04-29T17:03:06.636Z,3.77
2018-04-29T17:05:34.785Z,3.20
2018-04-29T17:08:02.933Z,5.07
2018-04-29T17:10:31.090Z,4.80
2018-04-29T17:13:00.026Z,8.50
2018-04-29T17:15:28.139Z,4.53
2018-04-29T17:17:57.251Z,6.43
2018-04-29T17:20:26.201Z,3.67
2018-04-29T17:22:54.349Z,3.60
2018-04-29T17:25:22.468Z,3.50
2018-04-29T17:27:50.637Z,3.73
2018-04-29T17:30:18.785Z,4.07
2018-04-29T17:32:46.943Z,3.70
2018-04-29T17:35:15.118Z,3.57
2018-04-29T17:37:43.236Z,3.53
2018-04-29T17:40:11.474Z,4.67
2018-04-29T17:42:39.622Z,3.87
2018-04-29T17:45:07.766Z,4.37
2018-04-29T17:47:36.676Z,3.57
2018-04-29T17:50:04.826Z,3.10
2018-04-29T17:52:33.847Z,3.90
2018-04-29T17:55:01.969Z,3.57
2018-04-29T17:57:30.169Z,3.90
2018-04-29T17:59:59.072Z,3.40
2018-04-29T18:02:27.375Z,4.13
2018-04-29T18:04:55.510Z,6.37
2018-04-29T18:07:24.440Z,4.10
2018-04-29T18:09:52.577Z,3.90
2018-04-29T18:12:21.626Z,4.00
2018-04-29T18:14:49.810Z,3.90
2018-04-29T18:17:18.092Z,4.70
2018-04-29T18:19:46.255Z,3.97
2018-04-29T18:22:14.425Z,4.33
2018-04-29T18:24:42.549Z,6.17
2018-04-29T18:27:10.698Z,5.20
2018-04-29T18:29:39.748Z,5.80
2018-04-29T18:32:07.892Z,5.60
2018-04-29T18:34:36.029Z,5.00
2018-04-29T18:37:04.265Z,12.20
2018-04-29T18:39:32.577Z,6.17
2018-04-29T18:42:01.579Z,5.50
2018-04-29T18:44:30.510Z,4.77
2018-04-29T18:46:58.636Z,4.93
2018-04-29T18:49:27.540Z,8.50
2018-04-29T18:51:56.854Z,6.10
2018-04-29T18:54:24.996Z,5.00
2018-04-29T18:56:53.909Z,4.83
2018-04-29T18:59:22.029Z,5.87
2018-04-29T19:01:50.158Z,7.57
2018-04-29T19:04:18.314Z,9.60
2018-04-29T19:06:47.200Z,6.40
2018-04-29T19:09:16.117Z,5.50
2018-04-29T19:11:44.393Z,5.90
2018-04-29T19:14:12.596Z,6.70
2018-04-29T19:16:40.720Z,10.40
2018-04-29T19:19:09.674Z,23.77
2018-04-29T19:21:37.956Z,5.93
2018-04-29T19:24:06.190Z,5.30
2018-04-29T19:26:35.313Z,6.00
2018-04-29T19:29:03.480Z,5.00
2018-04-29T19:31:31.685Z,5.07
2018-04-29T19:33:59.805Z,5.87
2018-04-29T19:36:27.986Z,5.50
2018-04-29T19:38:56.138Z,5.40
2018-04-29T19:41:24.265Z,5.80
2018-04-29T19:43:52.528Z,5.20
2018-04-29T19:46:21.380Z,6.87
2018-04-29T19:48:49.530Z,5.10
2018-04-29T19:51:17.728Z,6.43
2018-04-29T19:53:45.878Z,6.00
2018-04-29T19:56:14.008Z,5.53
2018-04-29T19:58:42.186Z,5.63
2018-04-29T20:01:10.408Z,5.43
2018-04-29T20:03:38.647Z,5.47
2018-04-29T20:06:06.697Z,6.30
2018-04-29T20:08:34.832Z,7.57
2018-04-29T20:11:02.981Z,6.13
2018-04-29T20:13:32.073Z,5.30
2018-04-29T20:16:00.958Z,7.23
2018-04-29T20:18:29.954Z,6.93
2018-04-29T20:20:58.088Z,7.47
2018-04-29T20:23:26.355Z,7.10
2018-04-29T20:25:54.497Z,7.20
2018-04-29T20:28:22.657Z,6.70
2018-04-29T20:30:50.792Z,6.50
2018-04-29T20:33:18.927Z,6.03
2018-04-29T20:35:47.113Z,6.40
2018-04-29T20:38:15.241Z,6.20
2018-04-29T20:40:44.377Z,6.67
2018-04-29T20:43:12.511Z,6.23
2018-04-29T20:45:41.446Z,6.30
2018-04-29T20:48:09.642Z,5.87
2018-04-29T20:50:37.871Z,6.30
2018-04-29T20:53:06.044Z,6.20
2018-04-29T20:55:34.323Z,6.83
2018-04-29T20:58:02.522Z,6.33
2018-04-29T21:00:30.772Z,6.10
2018-04-29T21:02:58.924Z,6.43
2018-04-29T21:05:27.040Z,5.87
2018-04-29T21:07:55.177Z,5.60
2018-04-29T21:10:23.344Z,5.60
2018-04-29T21:12:51.486Z,5.17
2018-04-29T21:15:20.413Z,4.83
2018-04-29T21:17:48.570Z,5.40
2018-04-29T21:20:16.774Z,6.30
2018-04-29T21:22:44.935Z,5.90
2018-04-29T21:25:13.085Z,5.30
2018-04-29T21:27:42.009Z,5.57
2018-04-29T21:30:10.153Z,5.30
2018-04-29T21:32:38.297Z,5.00
2018-04-29T21:35:06.440Z,4.80
2018-04-29T21:37:35.117Z,5.47
2018-04-29T21:40:03.241Z,4.90
2018-04-29T21:42:32.128Z,5.47
2018-04-29T21:45:01.064Z,5.73
2018-04-29T21:47:29.171Z,6.20
2018-04-29T21:49:57.322Z,4.90
2018-04-29T21:52:26.065Z,5.03
2018-04-29T21:54:54.181Z,5.20
2018-04-29T21:57:22.353Z,5.10
2018-04-29T21:59:50.484Z,5.60
2018-04-29T22:02:18.642Z,5.53
2018-04-29T22:04:46.779Z,4.43
2018-04-29T22:07:14.922Z,5.30
2018-04-29T22:09:43.106Z,5.50
2018-04-29T22:12:11.258Z,4.60
2018-04-29T22:14:39.389Z,5.43
2018-04-29T22:17:07.564Z,6.57
2018-04-29T22:19:35.688Z,5.40
2018-04-29T22:22:03.841Z,5.67
2018-04-29T22:24:31.976Z,6.60
2018-04-29T22:27:00.123Z,5.70
2018-04-29T22:29:28.282Z,5.80
2018-04-29T22:31:56.436Z,6.50
2018-04-29T22:34:24.632Z,6.40
2018-04-29T22:36:52.802Z,5.80
2018-04-29T22:39:20.978Z,5.30
2018-04-29T22:41:49.924Z,5.90
2018-04-29T22:44:18.866Z,6.10
2018-04-29T22:46:47.049Z,6.50
2018-04-29T22:49:15.211Z,6.47
2018-04-29T22:51:43.336Z,6.10
2018-04-29T22:54:11.452Z,6.50
2018-04-29T22:56:39.581Z,6.97
2018-04-29T22:59:07.725Z,6.03
2018-04-29T23:01:35.898Z,6.37
2018-04-29T23:04:04.191Z,6.27
2018-04-29T23:06:32.280Z,6.77
2018-04-29T23:09:00.395Z,6.40
2018-04-29T23:11:28.981Z,6.70
2018-04-29T23:13:57.126Z,7.20
2018-04-29T23:16:25.258Z,6.20
2018-04-29T23:18:54.316Z,8.50
2018-04-29T23:21:22.794Z,7.33
2018-04-29T23:23:50.941Z,7.10
2018-04-29T23:26:19.064Z,8.50
2018-04-29T23:28:47.174Z,8.13
2018-04-29T23:31:15.338Z,7.30
2018-04-29T23:33:43.460Z,6.90
2018-04-29T23:36:11.609Z,6.80
2018-04-29T23:38:39.752Z,6.87
2018-04-29T23:41:07.920Z,7.77
2018-04-29T23:43:36.125Z,7.37
2018-04-29T23:46:04.261Z,6.83
2018-04-29T23:48:33.141Z,7.83
2018-04-29T23:51:02.051Z,6.77
2018-04-29T23:53:30.197Z,8.83
2018-04-29T23:55:58.311Z,8.97
2018-04-29T23:58:26.471Z,6.87
